Time,TemperatureF,DewpointF,PressureIn,WindDirection,WindDirectionDegrees,WindSpeedMPH,WindSpeedGustMPH,Humidity,HourlyPrecipIn,Conditions,Clouds,dailyrainin,SoftwareType,DateUTC
2013-01-13 00:01:00,3.7,-9.9,30.26,South,180,5.0,6.0,52,0.00,,,0.00,meteohub,2013-01-13 06:01:00,
2013-01-13 00:06:00,3.7,-9.9,30.26,South,180,5.0,6.0,52,0.00,,,0.00,meteohub,2013-01-13 06:06:00,
2013-01-13 00:11:00,3.6,-9.8,30.27,South,180,5.0,6.0,53,0.00,,,0.00,meteohub,2013-01-13 06:11:00,
2013-01-13 00:16:00,3.6,-9.8,30.26,South,180,7.0,7.0,53,0.00,,,0.00,meteohub,2013-01-13 06:16:00,
2013-01-13 00:21:00,3.6,-9.8,30.26,SE,135,4.0,7.0,53,0.00,,,0.00,meteohub,2013-01-13 06:21:00,
2013-01-13 00:26:00,3.6,-9.8,30.27,South,180,3.0,7.0,53,0.00,,,0.00,meteohub,2013-01-13 06:26:00,
2013-01-13 00:31:00,3.6,-9.8,30.27,SW,225,2.0,7.0,53,0.00,,,0.00,meteohub,2013-01-13 06:31:00,
2013-01-13 00:36:00,3.4,-9.9,30.27,SW,225,2.0,7.0,53,0.00,,,0.00,meteohub,2013-01-13 06:36:00,
2013-01-13 00:41:00,3.4,-9.9,30.26,South,180,4.0,4.0,53,0.00,,,0.00,meteohub,2013-01-13 06:41:00,
2013-01-13 00:46:00,3.4,-9.9,30.26,West,270,2.0,4.0,53,0.00,,,0.00,meteohub,2013-01-13 06:46:00,
2013-01-13 00:51:00,3.4,-9.6,30.26,SW,225,4.0,4.0,54,0.00,,,0.00,meteohub,2013-01-13 06:51:00,
2013-01-13 00:56:00,3.2,-9.8,30.26,SSW,203,4.0,5.0,54,0.00,,,0.00,meteohub,2013-01-13 06:56:00,
2013-01-13 01:01:00,3.2,-9.8,30.25,South,180,4.0,6.0,54,0.00,,,0.00,meteohub,2013-01-13 07:01:00,
2013-01-13 01:07:00,3.0,-9.6,30.25,South,180,4.0,6.0,55,0.00,,,0.00,meteohub,2013-01-13 07:07:00,
2013-01-13 01:12:00,3.0,-9.6,30.25,SW,225,3.0,11.0,55,0.00,,,0.00,meteohub,2013-01-13 07:12:00,
2013-01-13 01:17:00,2.8,-9.6,30.25,SW,225,2.0,11.0,55,0.00,,,0.00,meteohub,2013-01-13 07:17:00,
2013-01-13 01:22:00,2.8,-9.6,30.25,South,180,5.0,11.0,55,0.00,,,0.00,meteohub,2013-01-13 07:22:00,
2013-01-13 01:27:00,2.8,-9.6,30.25,SW,225,5.0,9.0,55,0.00,,,0.00,meteohub,2013-01-13 07:27:00,
2013-01-13 01:32:00,2.8,-9.6,30.26,South,180,5.0,6.0,55,0.00,,,0.00,meteohub,2013-01-13 07:32:00,
2013-01-13 01:37:00,2.7,-9.8,30.26,SW,225,5.0,7.0,55,0.00,,,0.00,meteohub,2013-01-13 07:37:00,
2013-01-13 01:42:00,2.7,-9.8,30.26,SW,225,3.0,7.0,55,0.00,,,0.00,meteohub,2013-01-13 07:42:00,
2013-01-13 01:47:00,2.7,-9.8,30.26,South,180,4.0,7.0,55,0.00,,,0.00,meteohub,2013-01-13 07:47:00,
2013-01-13 01:52:00,2.7,-9.8,30.26,SW,225,4.0,6.0,55,0.00,,,0.00,meteohub,2013-01-13 07:52:00,
2013-01-13 01:57:00,2.7,-9.8,30.26,South,180,4.0,6.0,55,0.00,,,0.00,meteohub,2013-01-13 07:57:00,
2013-01-13 02:02:00,2.5,-9.9,30.25,South,180,8.0,8.0,55,0.00,,,0.00,meteohub,2013-01-13 08:02:00,
2013-01-13 02:07:00,2.5,-9.9,30.26,South,180,8.0,8.0,55,0.00,,,0.00,meteohub,2013-01-13 08:07:00,
2013-01-13 02:12:00,2.5,-9.9,30.26,SW,225,4.0,8.0,55,0.00,,,0.00,meteohub,2013-01-13 08:12:00,
2013-01-13 02:17:00,2.5,-9.9,30.26,South,180,2.0,8.0,55,0.00,,,0.00,meteohub,2013-01-13 08:17:00,
2013-01-13 02:22:00,2.5,-9.9,30.26,SW,225,4.0,8.0,55,0.00,,,0.00,meteohub,2013-01-13 08:22:00,
2013-01-13 02:27:00,2.3,-10.1,30.26,South,180,4.0,4.0,55,0.00,,,0.00,meteohub,2013-01-13 08:27:00,
2013-01-13 02:32:00,2.3,-10.1,30.26,SW,225,8.0,8.0,55,0.00,,,0.00,meteohub,2013-01-13 08:32:00,
2013-01-13 02:37:00,2.1,-10.3,30.26,SW,225,3.0,8.0,55,0.00,,,0.00,meteohub,2013-01-13 08:37:00,
2013-01-13 02:42:00,2.3,-10.1,30.26,SW,225,6.0,8.0,55,0.00,,,0.00,meteohub,2013-01-13 08:42:00,
2013-01-13 02:47:00,2.1,-10.3,30.26,SW,225,4.0,8.0,55,0.00,,,0.00,meteohub,2013-01-13 08:47:00,
2013-01-13 02:52:00,2.1,-10.3,30.25,SSW,203,4.0,6.0,55,0.00,,,0.00,meteohub,2013-01-13 08:52:00,
2013-01-13 02:57:00,2.1,-9.9,30.26,SW,225,4.0,6.0,56,0.00,,,0.00,meteohub,2013-01-13 08:57:00,
2013-01-13 03:02:00,2.1,-9.9,30.26,South,180,4.0,6.0,56,0.00,,,0.00,meteohub,2013-01-13 09:02:00,
2013-01-13 03:07:00,2.1,-9.9,30.25,South,180,4.0,6.0,56,0.00,,,0.00,meteohub,2013-01-13 09:07:00,
2013-01-13 03:12:00,2.1,-9.9,30.25,South,180,4.0,4.0,56,0.00,,,0.00,meteohub,2013-01-13 09:12:00,
2013-01-13 03:17:00,1.9,-10.1,30.25,South,180,7.0,7.0,56,0.00,,,0.00,meteohub,2013-01-13 09:17:00,
2013-01-13 03:22:00,1.9,-10.1,30.25,SW,225,2.0,7.0,56,0.00,,,0.00,meteohub,2013-01-13 09:22:00,
2013-01-13 03:27:00,1.9,-10.1,30.25,South,180,3.0,7.0,56,0.00,,,0.00,meteohub,2013-01-13 09:27:00,
2013-01-13 03:32:00,1.8,-10.3,30.25,East,90,2.0,7.0,56,0.00,,,0.00,meteohub,2013-01-13 09:32:00,
2013-01-13 03:37:00,1.8,-10.3,30.25,SW,225,7.0,7.0,56,0.00,,,0.00,meteohub,2013-01-13 09:37:00,
2013-01-13 03:42:00,1.8,-10.3,30.25,West,270,2.0,7.0,56,0.00,,,0.00,meteohub,2013-01-13 09:42:00,
2013-01-13 03:47:00,1.8,-10.3,30.25,SW,225,4.0,7.0,56,0.00,,,0.00,meteohub,2013-01-13 09:47:00,
2013-01-13 03:52:00,1.8,-10.3,30.25,SW,225,4.0,7.0,56,0.00,,,0.00,meteohub,2013-01-13 09:52:00,
2013-01-13 03:57:00,1.8,-10.3,30.25,SE,135,4.0,5.0,56,0.00,,,0.00,meteohub,2013-01-13 09:57:00,
2013-01-13 04:02:00,1.8,-10.3,30.25,SE,135,4.0,5.0,56,0.00,,,0.00,meteohub,2013-01-13 10:02:00,
2013-01-13 04:07:00,1.8,-10.3,30.26,SE,135,4.0,5.0,56,0.00,,,0.00,meteohub,2013-01-13 10:07:00,
2013-01-13 04:12:00,1.8,-10.3,30.25,South,180,3.0,4.0,56,0.00,,,0.00,meteohub,2013-01-13 10:12:00,
2013-01-13 04:17:00,1.8,-10.3,30.25,SW,225,4.0,4.0,56,0.00,,,0.00,meteohub,2013-01-13 10:17:00,
2013-01-13 04:22:00,1.8,-10.3,30.25,South,180,3.0,5.0,56,0.00,,,0.00,meteohub,2013-01-13 10:22:00,
2013-01-13 04:27:00,1.9,-10.1,30.25,SE,135,3.0,5.0,56,0.00,,,0.00,meteohub,2013-01-13 10:27:00,
2013-01-13 04:32:00,1.9,-10.1,30.26,South,180,5.0,8.0,56,0.00,,,0.00,meteohub,2013-01-13 10:32:00,
2013-01-13 04:37:00,2.1,-9.9,30.25,SE,135,4.0,8.0,56,0.00,,,0.00,meteohub,2013-01-13 10:37:00,
2013-01-13 04:42:00,2.1,-9.9,30.25,South,180,3.0,6.0,56,0.00,,,0.00,meteohub,2013-01-13 10:42:00,
2013-01-13 04:47:00,2.1,-9.9,30.26,ESE,113,6.0,6.0,56,0.00,,,0.00,meteohub,2013-01-13 10:47:00,
2013-01-13 04:52:00,2.1,-9.9,30.25,SSE,158,4.0,6.0,56,0.00,,,0.00,meteohub,2013-01-13 10:52:00,
2013-01-13 04:57:00,1.9,-10.1,30.24,SW,225,6.0,6.0,56,0.00,,,0.00,meteohub,2013-01-13 10:57:00,
2013-01-13 05:02:00,1.9,-10.1,30.25,SW,225,8.0,8.0,56,0.00,,,0.00,meteohub,2013-01-13 11:02:00,
2013-01-13 05:07:00,1.9,-10.1,30.25,South,180,5.0,8.0,56,0.00,,,0.00,meteohub,2013-01-13 11:07:00,
2013-01-13 05:12:00,1.9,-10.1,30.26,SE,135,6.0,8.0,56,0.00,,,0.00,meteohub,2013-01-13 11:12:00,
2013-01-13 05:17:00,1.9,-10.1,30.26,South,180,5.0,9.0,56,0.00,,,0.00,meteohub,2013-01-13 11:17:00,
2013-01-13 05:22:00,1.9,-10.1,30.27,South,180,5.0,9.0,56,0.00,,,0.00,meteohub,2013-01-13 11:22:00,
2013-01-13 05:27:00,1.8,-10.3,30.26,SW,225,4.0,7.0,56,0.00,,,0.00,meteohub,2013-01-13 11:27:00,
2013-01-13 05:32:00,1.8,-10.3,30.26,South,180,4.0,9.0,56,0.00,,,0.00,meteohub,2013-01-13 11:32:00,
2013-01-13 05:37:00,1.9,-10.1,30.26,SW,225,4.0,9.0,56,0.00,,,0.00,meteohub,2013-01-13 11:37:00,
2013-01-13 05:42:00,1.9,-9.8,30.27,South,180,4.0,9.0,57,0.00,,,0.00,meteohub,2013-01-13 11:42:00,
2013-01-13 05:47:00,1.9,-9.8,30.27,SW,225,4.0,8.0,57,0.00,,,0.00,meteohub,2013-01-13 11:47:00,
2013-01-13 05:52:00,1.9,-9.8,30.27,West,270,4.0,7.0,57,0.00,,,0.00,meteohub,2013-01-13 11:52:00,
2013-01-13 05:57:00,1.9,-9.8,30.27,West,270,5.0,7.0,57,0.00,,,0.00,meteohub,2013-01-13 11:57:00,
2013-01-13 06:02:00,1.9,-10.1,30.27,South,180,3.0,8.0,56,0.00,,,0.00,meteohub,2013-01-13 12:02:00,
2013-01-13 06:07:00,1.9,-10.1,30.27,South,180,3.0,8.0,56,0.00,,,0.00,meteohub,2013-01-13 12:07:00,
2013-01-13 06:12:00,1.8,-10.3,30.28,SW,225,7.0,8.0,56,0.00,,,0.00,meteohub,2013-01-13 12:12:00,
2013-01-13 06:17:00,1.8,-9.9,30.28,South,180,3.0,10.0,57,0.00,,,0.00,meteohub,2013-01-13 12:17:00,
2013-01-13 06:22:00,1.8,-9.9,30.28,East,90,4.0,10.0,57,0.00,,,0.00,meteohub,2013-01-13 12:22:00,
2013-01-13 06:27:00,1.8,-9.9,30.29,SW,225,4.0,10.0,57,0.00,,,0.00,meteohub,2013-01-13 12:27:00,
2013-01-13 06:32:00,1.6,-10.5,30.29,SW,225,4.0,7.0,56,0.00,,,0.00,meteohub,2013-01-13 12:32:00,
2013-01-13 06:37:00,1.6,-10.5,30.29,South,180,7.0,7.0,56,0.00,,,0.00,meteohub,2013-01-13 12:37:00,
2013-01-13 06:42:00,1.6,-10.5,30.29,SW,225,5.0,7.0,56,0.00,,,0.00,meteohub,2013-01-13 12:42:00,
2013-01-13 06:47:00,1.4,-10.7,30.30,South,180,5.0,7.0,56,0.00,,,0.00,meteohub,2013-01-13 12:47:00,
2013-01-13 06:52:00,1.4,-10.7,30.29,SW,225,7.0,8.0,56,0.00,,,0.00,meteohub,2013-01-13 12:52:00,
2013-01-13 06:57:00,1.4,-10.7,30.30,SW,225,5.0,8.0,56,0.00,,,0.00,meteohub,2013-01-13 12:57:00,
2013-01-13 07:02:00,1.2,-12.3,30.30,SW,225,2.0,8.0,52,0.00,,,0.00,meteohub,2013-01-13 13:02:00,
2013-01-13 07:07:00,1.2,-12.3,30.30,SSE,158,3.0,8.0,52,0.00,,,0.00,meteohub,2013-01-13 13:07:00,
2013-01-13 07:12:00,1.2,-11.9,30.31,SE,135,4.0,8.0,53,0.00,,,0.00,meteohub,2013-01-13 13:12:00,
2013-01-13 07:17:00,1.2,-11.9,30.31,South,180,4.0,7.0,53,0.00,,,0.00,meteohub,2013-01-13 13:17:00,
2013-01-13 07:22:00,1.0,-12.1,30.31,SW,225,5.0,5.0,53,0.00,,,0.00,meteohub,2013-01-13 13:22:00,
2013-01-13 07:27:00,1.0,-12.1,30.31,South,180,4.0,5.0,53,0.00,,,0.00,meteohub,2013-01-13 13:27:00,
2013-01-13 07:32:00,0.9,-12.3,30.32,South,180,3.0,5.0,53,0.00,,,0.00,meteohub,2013-01-13 13:32:00,
2013-01-13 07:37:00,0.9,-12.3,30.32,South,180,2.0,5.0,53,0.00,,,0.00,meteohub,2013-01-13 13:37:00,
2013-01-13 07:42:00,0.9,-12.3,30.32,SW,225,3.0,5.0,53,0.00,,,0.00,meteohub,2013-01-13 13:42:00,
2013-01-13 07:47:00,0.9,-12.3,30.32,SW,225,3.0,5.0,53,0.00,,,0.00,meteohub,2013-01-13 13:47:00,
2013-01-13 07:52:00,0.9,-12.3,30.32,SW,225,3.0,5.0,53,0.00,,,0.00,meteohub,2013-01-13 13:52:00,
2013-01-13 07:57:00,0.9,-12.3,30.32,South,180,4.0,4.0,53,0.00,,,0.00,meteohub,2013-01-13 13:57:00,
2013-01-13 08:02:00,0.9,-12.3,30.32,South,180,1.0,4.0,53,0.00,,,0.00,meteohub,2013-01-13 14:02:00,
2013-01-13 08:07:00,0.9,-12.3,30.33,South,180,2.0,4.0,53,0.00,,,0.00,meteohub,2013-01-13 14:07:00,
2013-01-13 08:12:00,0.9,-12.3,30.33,SW,225,4.0,4.0,53,0.00,,,0.00,meteohub,2013-01-13 14:12:00,
2013-01-13 08:17:00,0.9,-12.3,30.33,SSW,203,2.0,4.0,53,0.00,,,0.00,meteohub,2013-01-13 14:17:00,
2013-01-13 08:22:00,0.9,-12.3,30.33,SW,225,2.0,4.0,53,0.00,,,0.00,meteohub,2013-01-13 14:22:00,
2013-01-13 08:27:00,0.9,-12.3,30.33,SW,225,5.0,5.0,53,0.00,,,0.00,meteohub,2013-01-13 14:27:00,
2013-01-13 08:32:00,1.0,-12.1,30.33,SW,225,3.0,5.0,53,0.00,,,0.00,meteohub,2013-01-13 14:32:00,
2013-01-13 08:37:00,1.2,-11.9,30.34,SW,225,4.0,5.0,53,0.00,,,0.00,meteohub,2013-01-13 14:37:00,
2013-01-13 08:42:00,1.6,-10.1,30.34,West,270,2.0,6.0,57,0.00,,,0.00,meteohub,2013-01-13 14:42:00,
2013-01-13 08:47:00,2.1,-9.6,30.34,SW,225,4.0,6.0,57,0.00,,,0.00,meteohub,2013-01-13 14:47:00,
2013-01-13 08:52:00,2.1,-9.9,30.34,South,180,6.0,6.0,56,0.00,,,0.00,meteohub,2013-01-13 14:52:00,
2013-01-13 08:57:00,2.3,-10.1,30.34,SE,135,3.0,6.0,55,0.00,,,0.00,meteohub,2013-01-13 14:57:00,
2013-01-13 09:02:00,2.3,-10.1,30.35,South,180,4.0,6.0,55,0.00,,,0.00,meteohub,2013-01-13 15:02:00,
2013-01-13 09:07:00,2.3,-10.1,30.35,South,180,5.0,6.0,55,0.00,,,0.00,meteohub,2013-01-13 15:07:00,
2013-01-13 09:12:00,2.7,-9.8,30.35,West,270,5.0,7.0,55,0.00,,,0.00,meteohub,2013-01-13 15:12:00,
2013-01-13 09:17:00,2.7,-10.1,30.35,SE,135,6.0,7.0,54,0.00,,,0.00,meteohub,2013-01-13 15:17:00,
2013-01-13 09:23:00,2.7,-10.1,30.35,South,180,8.0,8.0,54,0.00,,,0.00,meteohub,2013-01-13 15:23:00,
2013-01-13 09:28:00,2.7,-10.1,30.35,SSE,158,4.0,8.0,54,0.00,,,0.00,meteohub,2013-01-13 15:28:00,
2013-01-13 09:33:00,2.7,-9.8,30.35,South,180,4.0,8.0,55,0.00,,,0.00,meteohub,2013-01-13 15:33:00,
2013-01-13 09:38:00,2.7,-9.8,30.35,South,180,4.0,8.0,55,0.00,,,0.00,meteohub,2013-01-13 15:38:00,
2013-01-13 09:43:00,2.7,-9.8,30.35,SW,225,4.0,7.0,55,0.00,,,0.00,meteohub,2013-01-13 15:43:00,
2013-01-13 09:48:00,2.7,-9.8,30.35,South,180,2.0,8.0,55,0.00,,,0.00,meteohub,2013-01-13 15:48:00,
2013-01-13 09:53:00,2.8,-9.6,30.35,SW,225,6.0,8.0,55,0.00,,,0.00,meteohub,2013-01-13 15:53:00,
2013-01-13 09:58:00,2.8,-9.6,30.35,South,180,3.0,8.0,55,0.00,,,0.00,meteohub,2013-01-13 15:58:00,
2013-01-13 10:03:00,3.0,-9.6,30.35,SE,135,5.0,6.0,55,0.00,,,0.00,meteohub,2013-01-13 16:03:00,
2013-01-13 10:08:00,2.8,-9.6,30.35,South,180,4.0,6.0,55,0.00,,,0.00,meteohub,2013-01-13 16:08:00,
2013-01-13 10:13:00,3.0,-9.6,30.35,West,270,8.0,8.0,55,0.00,,,0.00,meteohub,2013-01-13 16:13:00,
2013-01-13 10:18:00,3.0,-9.6,30.34,SW,225,4.0,8.0,55,0.00,,,0.00,meteohub,2013-01-13 16:18:00,
2013-01-13 10:23:00,3.2,-9.4,30.33,South,180,6.0,8.0,55,0.00,,,0.00,meteohub,2013-01-13 16:23:00,
2013-01-13 10:28:00,3.6,-9.0,30.33,South,180,4.0,8.0,55,0.00,,,0.00,meteohub,2013-01-13 16:28:00,
2013-01-13 10:33:00,3.9,-8.7,30.33,West,270,3.0,8.0,55,0.00,,,0.00,meteohub,2013-01-13 16:33:00,
2013-01-13 10:38:00,4.5,-7.8,30.33,SSW,203,4.0,6.0,56,0.00,,,0.00,meteohub,2013-01-13 16:38:00,
2013-01-13 10:43:00,4.3,-8.3,30.32,South,180,4.0,5.0,55,0.00,,,0.00,meteohub,2013-01-13 16:43:00,
2013-01-13 10:48:00,4.5,-8.1,30.32,SW,225,5.0,8.0,55,0.00,,,0.00,meteohub,2013-01-13 16:48:00,
2013-01-13 10:53:00,4.5,-8.1,30.32,East,90,4.0,8.0,55,0.00,,,0.00,meteohub,2013-01-13 16:53:00,
2013-01-13 10:58:00,4.6,-8.0,30.31,NE,45,3.0,8.0,55,0.00,,,0.00,meteohub,2013-01-13 16:58:00,
2013-01-13 11:03:00,5.2,-7.8,30.30,SW,225,8.0,8.0,54,0.00,,,0.00,meteohub,2013-01-13 17:03:00,
2013-01-13 11:08:00,5.7,-7.4,30.30,SSE,158,4.0,6.0,54,0.00,,,0.00,meteohub,2013-01-13 17:08:00,
2013-01-13 11:13:00,6.4,-6.7,30.30,South,180,4.0,8.0,54,0.00,,,0.00,meteohub,2013-01-13 17:13:00,
2013-01-13 11:18:00,7.2,-6.7,30.30,SW,225,4.0,8.0,52,0.00,,,0.00,meteohub,2013-01-13 17:18:00,
2013-01-13 11:23:00,7.9,-6.2,30.30,SE,135,6.0,7.0,52,0.00,,,0.00,meteohub,2013-01-13 17:23:00,
2013-01-13 11:28:00,8.6,-6.2,30.30,SE,135,5.0,7.0,50,0.00,,,0.00,meteohub,2013-01-13 17:28:00,
2013-01-13 11:34:00,9.0,-6.0,30.30,South,180,4.0,7.0,50,0.00,,,0.00,meteohub,2013-01-13 17:34:00,
2013-01-13 11:39:00,9.1,-6.2,30.29,South,180,7.0,7.0,49,0.00,,,0.00,meteohub,2013-01-13 17:39:00,
2013-01-13 11:44:00,8.6,-7.1,30.29,SW,225,8.0,8.0,48,0.00,,,0.00,meteohub,2013-01-13 17:44:00,
2013-01-13 11:49:00,8.2,-7.1,30.29,South,180,6.0,9.0,49,0.00,,,0.00,meteohub,2013-01-13 17:49:00,
2013-01-13 11:54:00,7.9,-7.2,30.29,South,180,6.0,9.0,49,0.00,,,0.00,meteohub,2013-01-13 17:54:00,
2013-01-13 11:59:00,7.7,-7.4,30.29,South,180,6.0,9.0,49,0.00,,,0.00,meteohub,2013-01-13 17:59:00,
2013-01-13 12:04:00,7.5,-7.6,30.29,South,180,4.0,8.0,49,0.00,,,0.00,meteohub,2013-01-13 18:04:00,
2013-01-13 12:09:00,7.5,-7.6,30.29,South,180,6.0,8.0,49,0.00,,,0.00,meteohub,2013-01-13 18:09:00,
2013-01-13 12:14:00,7.5,-7.2,30.28,SW,225,3.0,8.0,50,0.00,,,0.00,meteohub,2013-01-13 18:14:00,
2013-01-13 12:19:00,7.3,-7.4,30.28,SW,225,4.0,7.0,50,0.00,,,0.00,meteohub,2013-01-13 18:19:00,
2013-01-13 12:24:00,7.3,-7.4,30.28,SSW,203,6.0,8.0,50,0.00,,,0.00,meteohub,2013-01-13 18:24:00,
2013-01-13 12:29:00,7.2,-7.6,30.28,South,180,7.0,8.0,50,0.00,,,0.00,meteohub,2013-01-13 18:29:00,
2013-01-13 12:34:00,7.2,-7.6,30.28,SW,225,6.0,8.0,50,0.00,,,0.00,meteohub,2013-01-13 18:34:00,
2013-01-13 12:39:00,7.3,-7.1,30.28,SW,225,4.0,7.0,51,0.00,,,0.00,meteohub,2013-01-13 18:39:00,
2013-01-13 12:44:00,7.3,-7.1,30.28,South,180,6.0,8.0,51,0.00,,,0.00,meteohub,2013-01-13 18:44:00,
2013-01-13 12:49:00,7.2,-7.2,30.29,South,180,5.0,8.0,51,0.00,,,0.00,meteohub,2013-01-13 18:49:00,
2013-01-13 12:54:00,7.3,-7.1,30.28,South,180,4.0,8.0,51,0.00,,,0.00,meteohub,2013-01-13 18:54:00,
2013-01-13 12:59:00,7.3,-7.1,30.28,South,180,4.0,8.0,51,0.00,,,0.00,meteohub,2013-01-13 18:59:00,
2013-01-13 13:04:00,7.3,-6.5,30.28,SE,135,7.0,7.0,52,0.00,,,0.00,meteohub,2013-01-13 19:04:00,
2013-01-13 13:09:00,7.3,-6.5,30.28,SW,225,5.0,7.0,52,0.00,,,0.00,meteohub,2013-01-13 19:09:00,
2013-01-13 13:14:00,7.3,-6.5,30.29,South,180,10.0,10.0,52,0.00,,,0.00,meteohub,2013-01-13 19:14:00,
2013-01-13 13:19:00,7.2,-7.2,30.29,SW,225,8.0,8.0,51,0.00,,,0.00,meteohub,2013-01-13 19:19:00,
2013-01-13 13:24:00,7.3,-7.1,30.29,ENE,68,4.0,11.0,51,0.00,,,0.00,meteohub,2013-01-13 19:24:00,
2013-01-13 13:29:00,7.5,-6.9,30.29,South,180,6.0,11.0,51,0.00,,,0.00,meteohub,2013-01-13 19:29:00,
2013-01-13 13:34:00,7.5,-6.9,30.28,SE,135,9.0,11.0,51,0.00,,,0.00,meteohub,2013-01-13 19:34:00,
2013-01-13 13:39:00,7.3,-7.1,30.29,South,180,8.0,9.0,51,0.00,,,0.00,meteohub,2013-01-13 19:39:00,
2013-01-13 13:45:00,7.3,-7.1,30.29,SE,135,8.0,9.0,51,0.00,,,0.00,meteohub,2013-01-13 19:45:00,
2013-01-13 13:50:00,7.5,-6.9,30.29,South,180,8.0,9.0,51,0.00,,,0.00,meteohub,2013-01-13 19:50:00,
2013-01-13 13:55:00,7.5,-6.9,30.29,South,180,7.0,8.0,51,0.00,,,0.00,meteohub,2013-01-13 19:55:00,
2013-01-13 14:00:00,7.7,-6.7,30.29,SW,225,6.0,10.0,51,0.00,,,0.00,meteohub,2013-01-13 20:00:00,
2013-01-13 14:05:00,7.7,-6.7,30.30,South,180,4.0,10.0,51,0.00,,,0.00,meteohub,2013-01-13 20:05:00,
2013-01-13 14:10:00,8.1,-6.3,30.30,South,180,4.0,10.0,51,0.00,,,0.00,meteohub,2013-01-13 20:10:00,
2013-01-13 14:15:00,8.2,-6.2,30.30,South,180,9.0,9.0,51,0.00,,,0.00,meteohub,2013-01-13 20:15:00,
2013-01-13 14:20:00,7.9,-6.5,30.30,South,180,8.0,11.0,51,0.00,,,0.00,meteohub,2013-01-13 20:20:00,
2013-01-13 14:25:00,7.7,-6.7,30.31,South,180,3.0,11.0,51,0.00,,,0.00,meteohub,2013-01-13 20:25:00,
2013-01-13 14:30:00,7.9,-6.5,30.31,South,180,9.0,10.0,51,0.00,,,0.00,meteohub,2013-01-13 20:30:00,
2013-01-13 14:35:00,7.7,-6.7,30.31,SE,135,8.0,10.0,51,0.00,,,0.00,meteohub,2013-01-13 20:35:00,
2013-01-13 14:40:00,7.7,-6.7,30.31,South,180,6.0,10.0,51,0.00,,,0.00,meteohub,2013-01-13 20:40:00,
2013-01-13 14:45:00,7.9,-6.9,30.31,SSE,158,5.0,11.0,50,0.00,,,0.00,meteohub,2013-01-13 20:45:00,
2013-01-13 14:50:00,8.1,-6.7,30.31,SW,225,4.0,11.0,50,0.00,,,0.00,meteohub,2013-01-13 20:50:00,
2013-01-13 14:55:00,8.2,-6.5,30.31,East,90,8.0,11.0,50,0.00,,,0.00,meteohub,2013-01-13 20:55:00,
2013-01-13 15:00:00,8.1,-6.7,30.31,SE,135,6.0,9.0,50,0.00,,,0.00,meteohub,2013-01-13 21:00:00,
2013-01-13 15:05:00,8.1,-6.7,30.31,ESE,113,7.0,9.0,50,0.00,,,0.00,meteohub,2013-01-13 21:05:00,
2013-01-13 15:10:00,8.1,-6.7,30.32,SE,135,8.0,9.0,50,0.00,,,0.00,meteohub,2013-01-13 21:10:00,
2013-01-13 15:15:00,7.9,-6.9,30.32,SE,135,10.0,11.0,50,0.00,,,0.00,meteohub,2013-01-13 21:15:00,
2013-01-13 15:20:00,7.7,-7.1,30.33,South,180,5.0,11.0,50,0.00,,,0.00,meteohub,2013-01-13 21:20:00,
2013-01-13 15:25:00,7.7,-7.1,30.33,SSE,158,8.0,11.0,50,0.00,,,0.00,meteohub,2013-01-13 21:25:00,
2013-01-13 15:30:00,7.7,-7.1,30.32,SE,135,4.0,10.0,50,0.00,,,0.00,meteohub,2013-01-13 21:30:00,
2013-01-13 15:36:00,7.7,-6.7,30.33,SE,135,7.0,10.0,51,0.00,,,0.00,meteohub,2013-01-13 21:36:00,
2013-01-13 15:41:00,7.7,-6.7,30.33,SE,135,6.0,10.0,51,0.00,,,0.00,meteohub,2013-01-13 21:41:00,
2013-01-13 15:46:00,7.7,-6.7,30.33,South,180,5.0,10.0,51,0.00,,,0.00,meteohub,2013-01-13 21:46:00,
2013-01-13 15:51:00,7.5,-6.9,30.33,South,180,4.0,10.0,51,0.00,,,0.00,meteohub,2013-01-13 21:51:00,
2013-01-13 15:56:00,7.5,-6.9,30.34,SE,135,10.0,10.0,51,0.00,,,0.00,meteohub,2013-01-13 21:56:00,
2013-01-13 16:01:00,7.5,-6.9,30.33,South,180,5.0,10.0,51,0.00,,,0.00,meteohub,2013-01-13 22:01:00,
2013-01-13 16:06:00,7.5,-6.9,30.33,South,180,5.0,10.0,51,0.00,,,0.00,meteohub,2013-01-13 22:06:00,
2013-01-13 16:11:00,7.5,-7.2,30.33,SE,135,6.0,10.0,50,0.00,,,0.00,meteohub,2013-01-13 22:11:00,
2013-01-13 16:16:00,7.3,-7.4,30.34,SSE,158,8.0,8.0,50,0.00,,,0.00,meteohub,2013-01-13 22:16:00,
2013-01-13 16:21:00,7.3,-7.4,30.34,South,180,4.0,9.0,50,0.00,,,0.00,meteohub,2013-01-13 22:21:00,
2013-01-13 16:26:00,7.5,-7.2,30.34,SE,135,8.0,9.0,50,0.00,,,0.00,meteohub,2013-01-13 22:26:00,
2013-01-13 16:31:00,7.5,-7.2,30.34,SE,135,2.0,8.0,50,0.00,,,0.00,meteohub,2013-01-13 22:31:00,
2013-01-13 16:36:00,7.5,-6.9,30.34,SW,225,5.0,8.0,51,0.00,,,0.00,meteohub,2013-01-13 22:36:00,
2013-01-13 16:41:00,7.5,-7.2,30.34,South,180,6.0,8.0,50,0.00,,,0.00,meteohub,2013-01-13 22:41:00,
2013-01-13 16:46:00,7.3,-7.4,30.34,South,180,8.0,9.0,50,0.00,,,0.00,meteohub,2013-01-13 22:46:00,
2013-01-13 16:51:00,7.2,-7.6,30.35,South,180,4.0,9.0,50,0.00,,,0.00,meteohub,2013-01-13 22:51:00,
2013-01-13 16:56:00,7.3,-7.1,30.35,South,180,5.0,9.0,51,0.00,,,0.00,meteohub,2013-01-13 22:56:00,
2013-01-13 17:01:00,7.3,-7.1,30.35,South,180,5.0,8.0,51,0.00,,,0.00,meteohub,2013-01-13 23:01:00,
2013-01-13 17:06:00,7.3,-7.1,30.35,SE,135,5.0,8.0,51,0.00,,,0.00,meteohub,2013-01-13 23:06:00,
2013-01-13 17:11:00,7.3,-7.1,30.35,SE,135,4.0,7.0,51,0.00,,,0.00,meteohub,2013-01-13 23:11:00,
2013-01-13 17:16:00,7.2,-7.2,30.35,SE,135,4.0,7.0,51,0.00,,,0.00,meteohub,2013-01-13 23:16:00,
2013-01-13 17:21:00,7.2,-7.2,30.35,SE,135,3.0,9.0,51,0.00,,,0.00,meteohub,2013-01-13 23:21:00,
2013-01-13 17:27:00,7.2,-7.2,30.36,SW,225,7.0,9.0,51,0.00,,,0.00,meteohub,2013-01-13 23:27:00,
2013-01-13 17:32:00,7.2,-7.2,30.35,SE,135,3.0,9.0,51,0.00,,,0.00,meteohub,2013-01-13 23:32:00,
2013-01-13 17:37:00,7.0,-7.4,30.36,South,180,4.0,8.0,51,0.00,,,0.00,meteohub,2013-01-13 23:37:00,
2013-01-13 17:42:00,6.8,-7.4,30.36,SSE,158,8.0,9.0,51,0.00,,,0.00,meteohub,2013-01-13 23:42:00,
2013-01-13 17:47:00,6.4,-7.4,30.36,South,180,7.0,11.0,52,0.00,,,0.00,meteohub,2013-01-13 23:47:00,
2013-01-13 17:52:00,6.3,-7.6,30.36,South,180,12.0,12.0,52,0.00,,,0.00,meteohub,2013-01-13 23:52:00,
2013-01-13 17:57:00,5.9,-8.0,30.36,South,180,7.0,12.0,52,0.00,,,0.00,meteohub,2013-01-13 23:57:00,
2013-01-13 18:02:00,5.9,-8.0,30.36,SW,225,4.0,12.0,52,0.00,,,0.00,meteohub,2013-01-14 00:02:00,
2013-01-13 18:07:00,5.9,-8.0,30.37,SW,225,4.0,12.0,52,0.00,,,0.00,meteohub,2013-01-14 00:07:00,
2013-01-13 18:12:00,5.7,-8.1,30.37,South,180,3.0,8.0,52,0.00,,,0.00,meteohub,2013-01-14 00:12:00,
2013-01-13 18:17:00,5.5,-8.3,30.37,SSE,158,11.0,11.0,52,0.00,,,0.00,meteohub,2013-01-14 00:17:00,
2013-01-13 18:22:00,5.5,-8.3,30.38,SSE,158,7.0,11.0,52,0.00,,,0.00,meteohub,2013-01-14 00:22:00,
2013-01-13 18:27:00,5.4,-8.5,30.37,South,180,7.0,11.0,52,0.00,,,0.00,meteohub,2013-01-14 00:27:00,
2013-01-13 18:32:00,5.4,-8.5,30.38,South,180,4.0,11.0,52,0.00,,,0.00,meteohub,2013-01-14 00:32:00,
2013-01-13 18:37:00,5.4,-8.5,30.38,SE,135,5.0,11.0,52,0.00,,,0.00,meteohub,2013-01-14 00:37:00,
2013-01-13 18:42:00,5.4,-8.5,30.38,South,180,6.0,8.0,52,0.00,,,0.00,meteohub,2013-01-14 00:42:00,
2013-01-13 18:47:00,5.4,-8.5,30.37,East,90,3.0,8.0,52,0.00,,,0.00,meteohub,2013-01-14 00:47:00,
2013-01-13 18:52:00,5.4,-8.1,30.38,SE,135,3.0,8.0,53,0.00,,,0.00,meteohub,2013-01-14 00:52:00,
2013-01-13 18:57:00,5.4,-8.1,30.38,SSE,158,7.0,8.0,53,0.00,,,0.00,meteohub,2013-01-14 00:57:00,
2013-01-13 19:02:00,5.4,-8.1,30.38,SE,135,3.0,8.0,53,0.00,,,0.00,meteohub,2013-01-14 01:02:00,
2013-01-13 19:07:00,5.4,-8.1,30.38,South,180,4.0,8.0,53,0.00,,,0.00,meteohub,2013-01-14 01:07:00,
2013-01-13 19:12:00,5.4,-8.1,30.38,SSE,158,7.0,8.0,53,0.00,,,0.00,meteohub,2013-01-14 01:12:00,
2013-01-13 19:17:00,5.4,-8.1,30.38,SE,135,8.0,8.0,53,0.00,,,0.00,meteohub,2013-01-14 01:17:00,
2013-01-13 19:22:00,5.2,-8.1,30.38,SE,135,8.0,8.0,53,0.00,,,0.00,meteohub,2013-01-14 01:22:00,
2013-01-13 19:27:00,5.2,-8.1,30.38,SE,135,4.0,8.0,53,0.00,,,0.00,meteohub,2013-01-14 01:27:00,
2013-01-13 19:32:00,5.2,-8.1,30.38,South,180,2.0,8.0,53,0.00,,,0.00,meteohub,2013-01-14 01:32:00,
2013-01-13 19:37:00,5.0,-8.3,30.39,SE,135,4.0,8.0,53,0.00,,,0.00,meteohub,2013-01-14 01:37:00,
2013-01-13 19:42:00,5.0,-8.0,30.39,SE,135,2.0,5.0,54,0.00,,,0.00,meteohub,2013-01-14 01:42:00,
2013-01-13 19:47:00,5.0,-8.0,30.39,South,180,6.0,6.0,54,0.00,,,0.00,meteohub,2013-01-14 01:47:00,
2013-01-13 19:52:00,4.8,-7.8,30.39,SE,135,5.0,6.0,55,0.00,,,0.00,meteohub,2013-01-14 01:52:00,
2013-01-13 19:57:00,4.8,-7.8,30.39,SE,135,3.0,7.0,55,0.00,,,0.00,meteohub,2013-01-14 01:57:00,
2013-01-13 20:02:00,4.8,-7.8,30.39,SE,135,3.0,8.0,55,0.00,,,0.00,meteohub,2013-01-14 02:02:00,
2013-01-13 20:07:00,4.8,-7.8,30.39,SE,135,3.0,8.0,55,0.00,,,0.00,meteohub,2013-01-14 02:07:00,
2013-01-13 20:12:00,4.8,-7.4,30.39,SE,135,5.0,6.0,56,0.00,,,0.00,meteohub,2013-01-14 02:12:00,
2013-01-13 20:17:00,4.8,-7.4,30.40,SSE,158,7.0,7.0,56,0.00,,,0.00,meteohub,2013-01-14 02:17:00,
2013-01-13 20:22:00,4.8,-7.4,30.40,East,90,4.0,7.0,56,0.00,,,0.00,meteohub,2013-01-14 02:22:00,
2013-01-13 20:27:00,4.6,-7.6,30.40,East,90,5.0,7.0,56,0.00,,,0.00,meteohub,2013-01-14 02:27:00,
2013-01-13 20:32:00,4.6,-7.6,30.40,ESE,113,8.0,8.0,56,0.00,,,0.00,meteohub,2013-01-14 02:32:00,
2013-01-13 20:37:00,4.6,-7.6,30.40,South,180,4.0,8.0,56,0.00,,,0.00,meteohub,2013-01-14 02:37:00,
2013-01-13 20:42:00,4.6,-7.6,30.40,South,180,4.0,8.0,56,0.00,,,0.00,meteohub,2013-01-14 02:42:00,
2013-01-13 20:47:00,4.6,-7.6,30.40,SE,135,5.0,8.0,56,0.00,,,0.00,meteohub,2013-01-14 02:47:00,
2013-01-13 20:52:00,4.6,-7.6,30.40,SE,135,4.0,7.0,56,0.00,,,0.00,meteohub,2013-01-14 02:52:00,
2013-01-13 20:57:00,4.5,-7.8,30.40,SE,135,4.0,6.0,56,0.00,,,0.00,meteohub,2013-01-14 02:57:00,
2013-01-13 21:02:00,4.5,-7.4,30.40,South,180,4.0,6.0,57,0.00,,,0.00,meteohub,2013-01-14 03:02:00,
2013-01-13 21:07:00,4.5,-7.4,30.40,South,180,3.0,6.0,57,0.00,,,0.00,meteohub,2013-01-14 03:07:00,
2013-01-13 21:12:00,4.5,-7.4,30.40,South,180,4.0,6.0,57,0.00,,,0.00,meteohub,2013-01-14 03:12:00,
2013-01-13 21:17:00,4.6,-7.2,30.40,South,180,2.0,5.0,57,0.00,,,0.00,meteohub,2013-01-14 03:17:00,
2013-01-13 21:22:00,4.6,-7.2,30.40,SE,135,4.0,5.0,57,0.00,,,0.00,meteohub,2013-01-14 03:22:00,
2013-01-13 21:27:00,4.6,-7.2,30.40,South,180,5.0,5.0,57,0.00,,,0.00,meteohub,2013-01-14 03:27:00,
2013-01-13 21:32:00,4.6,-7.2,30.40,East,90,4.0,5.0,57,0.00,,,0.00,meteohub,2013-01-14 03:32:00,
2013-01-13 21:37:00,4.8,-7.1,30.40,SE,135,4.0,5.0,57,0.00,,,0.00,meteohub,2013-01-14 03:37:00,
2013-01-13 21:42:00,4.8,-7.1,30.40,SE,135,4.0,5.0,57,0.00,,,0.00,meteohub,2013-01-14 03:42:00,
2013-01-13 21:47:00,4.6,-7.2,30.40,South,180,3.0,4.0,57,0.00,,,0.00,meteohub,2013-01-14 03:47:00,
2013-01-13 21:52:00,4.8,-7.1,30.41,SSE,158,3.0,4.0,57,0.00,,,0.00,meteohub,2013-01-14 03:52:00,
2013-01-13 21:57:00,4.8,-7.1,30.41,SSE,158,2.0,4.0,57,0.00,,,0.00,meteohub,2013-01-14 03:57:00,
2013-01-13 22:02:00,4.8,-7.1,30.41,South,180,1.0,4.0,57,0.00,,,0.00,meteohub,2013-01-14 04:02:00,
2013-01-13 22:07:00,4.8,-7.1,30.41,South,180,1.0,4.0,57,0.00,,,0.00,meteohub,2013-01-14 04:07:00,
2013-01-13 22:12:00,4.8,-7.1,30.42,SE,135,3.0,3.0,57,0.00,,,0.00,meteohub,2013-01-14 04:12:00,
2013-01-13 22:17:00,4.8,-7.1,30.42,SE,135,3.0,3.0,57,0.00,,,0.00,meteohub,2013-01-14 04:17:00,
2013-01-13 22:22:00,5.0,-7.2,30.42,SE,135,4.0,4.0,56,0.00,,,0.00,meteohub,2013-01-14 04:22:00,
2013-01-13 22:27:00,5.0,-7.2,30.42,South,180,3.0,4.0,56,0.00,,,0.00,meteohub,2013-01-14 04:27:00,
2013-01-13 22:32:00,5.0,-7.2,30.42,SE,135,4.0,4.0,56,0.00,,,0.00,meteohub,2013-01-14 04:32:00,
2013-01-13 22:37:00,5.0,-7.2,30.42,SE,135,3.0,4.0,56,0.00,,,0.00,meteohub,2013-01-14 04:37:00,
2013-01-13 22:42:00,5.0,-7.2,30.42,South,180,2.0,4.0,56,0.00,,,0.00,meteohub,2013-01-14 04:42:00,
2013-01-13 22:47:00,5.0,-6.9,30.42,SE,135,2.0,4.0,57,0.00,,,0.00,meteohub,2013-01-14 04:47:00,
2013-01-13 22:52:00,4.8,-6.7,30.43,SE,135,1.0,4.0,58,0.00,,,0.00,meteohub,2013-01-14 04:52:00,
2013-01-13 22:57:00,4.8,-6.7,30.42,South,180,2.0,4.0,58,0.00,,,0.00,meteohub,2013-01-14 04:57:00,
2013-01-13 23:00:00,4.8,-6.7,30.43,South,180,2.0,3.0,58,0.00,,,0.00,meteohub,2013-01-14 05:00:00,
2013-01-13 23:01:00,4.8,-6.7,30.43,SE,135,2.0,3.0,58,0.00,,,0.00,meteohub,2013-01-14 05:01:00,
2013-01-13 23:02:00,4.6,-6.9,30.43,SE,135,2.0,3.0,58,0.00,,,0.00,meteohub,2013-01-14 05:02:00,
2013-01-13 23:07:00,4.6,-6.9,30.43,SE,135,2.0,3.0,58,0.00,,,0.00,meteohub,2013-01-14 05:07:00,
2013-01-13 23:09:00,4.6,-6.9,30.42,East,90,2.0,3.0,58,0.00,,,0.00,meteohub,2013-01-14 05:09:00,
2013-01-13 23:14:00,5.0,-6.9,30.43,ESE,113,3.0,3.0,57,0.00,,,0.00,meteohub,2013-01-14 05:14:00,
2013-01-13 23:20:00,5.0,-6.5,30.43,SE,135,3.0,4.0,58,0.00,,,0.00,meteohub,2013-01-14 05:20:00,
2013-01-13 23:25:00,5.0,-6.5,30.43,South,180,2.0,4.0,58,0.00,,,0.00,meteohub,2013-01-14 05:25:00,
2013-01-13 23:30:00,5.0,-6.5,30.43,SE,135,2.0,4.0,58,0.00,,,0.00,meteohub,2013-01-14 05:30:00,
2013-01-13 23:35:00,5.0,-6.2,30.43,ESE,113,3.0,4.0,59,0.00,,,0.05,meteohub,2013-01-14 05:35:00,
2013-01-13 23:40:00,5.0,-6.2,30.43,East,90,4.0,4.0,59,0.05,,,0.05,meteohub,2013-01-14 05:40:00,
2013-01-13 23:45:00,5.0,-5.8,30.43,SE,135,2.0,4.0,60,0.05,,,0.05,meteohub,2013-01-14 05:45:00,
2013-01-13 23:50:00,5.0,-5.8,30.43,East,90,4.0,4.0,60,0.05,,,0.05,meteohub,2013-01-14 05:50:00,
2013-01-13 23:55:00,5.0,-5.8,30.43,SE,135,4.0,4.0,60,0.05,,,0.05,meteohub,2013-01-14 05:55:00,